createdAt,value
2019-02-18T00:01:22.993Z,6.67
2019-02-18T00:03:53.365Z,6.40
2019-02-18T00:06:23.742Z,6.37
2019-02-18T00:08:54.189Z,6.00
2019-02-18T00:11:24.539Z,5.80
2019-02-18T00:13:56.221Z,5.80
2019-02-18T00:16:26.573Z,6.15
2019-02-18T00:18:56.990Z,6.15
2019-02-18T00:21:29.224Z,6.10
2019-02-18T00:24:00.759Z,6.45
2019-02-18T00:26:31.212Z,6.05
2019-02-18T00:29:01.661Z,5.83
2019-02-18T00:31:32.042Z,6.15
2019-02-18T00:34:02.372Z,6.05
2019-02-18T00:36:34.105Z,5.95
2019-02-18T00:39:06.075Z,6.33
2019-02-18T00:41:38.357Z,5.50
2019-02-18T00:44:09.886Z,5.95
2019-02-18T00:46:40.207Z,6.00
2019-02-18T00:49:11.533Z,5.67
2019-02-18T00:51:44.070Z,5.72
2019-02-18T00:54:19.743Z,6.65
2019-02-18T00:56:50.107Z,6.22
2019-02-18T00:59:21.582Z,6.33
2019-02-18T01:01:53.010Z,6.28
2019-02-18T01:04:25.069Z,5.95
2019-02-18T01:06:55.447Z,5.95
2019-02-18T01:09:27.382Z,5.87
2019-02-18T01:11:59.033Z,5.28
2019-02-18T01:14:31.373Z,5.50
2019-02-18T01:17:01.731Z,6.28
2019-02-18T01:19:32.271Z,5.80
2019-02-18T01:22:02.698Z,5.90
2019-02-18T01:24:33.186Z,5.72
2019-02-18T01:27:03.810Z,5.42
2019-02-18T01:29:37.017Z,5.70
2019-02-18T01:32:08.424Z,5.78
2019-02-18T01:34:39.010Z,5.83
2019-02-18T01:37:11.255Z,6.20
2019-02-18T01:39:41.675Z,5.58
2019-02-18T01:42:12.119Z,5.80
2019-02-18T01:44:42.463Z,6.03
2019-02-18T01:47:14.867Z,6.10
2019-02-18T01:49:48.106Z,5.75
2019-02-18T01:52:19.572Z,5.80
2019-02-18T01:54:49.940Z,5.45
2019-02-18T01:57:22.101Z,5.58
2019-02-18T01:59:53.728Z,5.85
2019-02-18T02:02:26.850Z,5.85
2019-02-18T02:04:58.772Z,5.97
2019-02-18T02:07:30.165Z,5.37
2019-02-18T02:10:00.553Z,6.10
2019-02-18T02:12:32.747Z,5.58
2019-02-18T02:15:03.257Z,5.37
2019-02-18T02:17:34.638Z,5.75
2019-02-18T02:20:05.605Z,6.05
2019-02-18T02:22:36.014Z,5.25
2019-02-18T02:25:07.604Z,5.50
2019-02-18T02:27:40.626Z,5.35
2019-02-18T02:30:11.223Z,6.10
2019-02-18T02:32:41.528Z,5.45
2019-02-18T02:35:11.943Z,5.62
2019-02-18T02:37:43.562Z,5.50
2019-02-18T02:40:15.730Z,5.53
2019-02-18T02:42:46.178Z,5.83
2019-02-18T02:45:16.661Z,5.67
2019-02-18T02:47:48.810Z,6.10
2019-02-18T02:50:20.368Z,5.67
2019-02-18T02:52:52.615Z,5.60
2019-02-18T02:55:23.227Z,5.55
2019-02-18T02:57:53.644Z,5.70
2019-02-18T03:00:24.261Z,5.60
2019-02-18T03:02:56.497Z,5.55
2019-02-18T03:05:26.857Z,5.37
2019-02-18T03:07:58.459Z,5.97
2019-02-18T03:10:30.651Z,5.50
2019-02-18T03:13:01.003Z,5.80
2019-02-18T03:15:31.328Z,6.08
2019-02-18T03:18:01.919Z,5.33
2019-02-18T03:20:33.852Z,5.50
2019-02-18T03:23:04.489Z,5.10
2019-02-18T03:25:34.959Z,5.42
2019-02-18T03:28:57.616Z,5.22
2019-02-18T03:31:29.889Z,5.12
2019-02-18T03:34:09.064Z,5.58
2019-02-18T03:36:39.463Z,5.42
2019-02-18T03:39:09.914Z,5.83
2019-02-18T03:41:41.084Z,5.05
2019-02-18T03:44:11.580Z,4.97
2019-02-18T03:46:42.188Z,5.08
2019-02-18T03:49:12.534Z,5.20
2019-02-18T03:51:42.899Z,4.62
2019-02-18T03:54:13.218Z,5.35
2019-02-18T03:56:44.884Z,5.08
2019-02-18T03:59:16.342Z,5.58
2019-02-18T04:01:46.801Z,5.47
2019-02-18T04:04:18.234Z,4.90
2019-02-18T04:06:50.412Z,5.20
2019-02-18T04:09:20.808Z,5.00
2019-02-18T04:11:53.146Z,5.72
2019-02-18T04:14:23.588Z,5.15
2019-02-18T04:16:53.990Z,5.30
2019-02-18T04:19:24.418Z,4.72
2019-02-18T04:21:54.766Z,5.35
2019-02-18T04:24:25.157Z,5.30
2019-02-18T04:26:57.134Z,4.78
2019-02-18T04:29:29.875Z,5.03
2019-02-18T04:32:00.330Z,5.45
2019-02-18T04:34:31.794Z,5.00
2019-02-18T04:37:03.980Z,5.17
2019-02-18T04:39:34.627Z,5.20
2019-02-18T04:42:04.972Z,4.90
2019-02-18T04:44:35.516Z,5.25
2019-02-18T04:47:06.969Z,5.22
2019-02-18T04:49:37.369Z,4.90
2019-02-18T04:52:08.745Z,5.30
2019-02-18T04:54:40.184Z,5.15
2019-02-18T04:57:10.819Z,4.65
2019-02-18T04:59:42.964Z,5.10
2019-02-18T05:02:13.267Z,4.85
2019-02-18T05:04:43.820Z,5.20
2019-02-18T05:07:14.477Z,5.15
2019-02-18T05:09:44.905Z,5.65
2019-02-18T05:12:15.266Z,5.15
2019-02-18T05:14:48.170Z,5.22
2019-02-18T05:17:19.746Z,5.80
2019-02-18T05:19:50.159Z,5.10
2019-02-18T05:22:20.559Z,5.28
2019-02-18T05:24:50.883Z,5.37
2019-02-18T05:27:33.059Z,5.75
2019-02-18T05:29:55.456Z,5.25
2019-02-18T05:32:27.847Z,5.20
2019-02-18T05:34:58.435Z,5.00
2019-02-18T05:37:28.830Z,5.28
2019-02-18T05:40:02.159Z,5.65
2019-02-18T05:42:33.515Z,4.58
2019-02-18T05:45:04.089Z,5.00
2019-02-18T05:47:34.806Z,4.42
2019-02-18T05:50:05.511Z,5.95
2019-02-18T05:52:36.080Z,5.17
2019-02-18T05:55:06.811Z,5.35
2019-02-18T05:57:37.247Z,5.30
2019-02-18T06:00:09.757Z,4.92
2019-02-18T06:02:41.934Z,5.12
2019-02-18T06:05:15.943Z,5.47
2019-02-18T06:07:46.521Z,5.33
2019-02-18T06:10:19.805Z,5.85
2019-02-18T06:12:51.216Z,5.92
2019-02-18T06:15:23.404Z,6.10
2019-02-18T06:17:54.923Z,5.75
2019-02-18T06:20:25.387Z,5.85
2019-02-18T06:22:55.826Z,5.47
2019-02-18T06:25:28.669Z,5.53
2019-02-18T06:27:59.069Z,5.17
2019-02-18T06:30:31.424Z,5.50
2019-02-18T06:33:01.850Z,5.40
2019-02-18T06:35:33.315Z,5.50
2019-02-18T06:38:03.679Z,5.58
2019-02-18T06:40:35.581Z,6.10
2019-02-18T06:43:07.133Z,6.53
2019-02-18T06:45:53.366Z,6.42
2019-02-18T06:48:30.265Z,6.72
2019-02-18T06:51:00.696Z,6.87
2019-02-18T06:53:31.012Z,6.33
2019-02-18T06:56:01.394Z,6.28
2019-02-18T06:58:44.147Z,7.42
2019-02-18T07:01:29.631Z,6.95
2019-02-18T07:04:11.067Z,6.55
2019-02-18T07:06:50.720Z,6.30
2019-02-18T07:09:51.477Z,6.42
2019-02-18T07:12:25.297Z,6.47
2019-02-18T07:14:57.448Z,6.83
2019-02-18T07:17:27.897Z,7.05
2019-02-18T07:19:58.429Z,7.03
2019-02-18T07:22:28.952Z,6.50
2019-02-18T07:25:00.265Z,7.00
2019-02-18T07:27:31.615Z,7.12
2019-02-18T07:30:02.249Z,7.05
2019-02-18T07:32:32.614Z,6.03
2019-02-18T07:35:02.947Z,5.65
2019-02-18T07:37:35.546Z,5.70
2019-02-18T07:40:07.333Z,6.05
2019-02-18T07:42:37.974Z,6.22
2019-02-18T07:45:09.726Z,6.65
2019-02-18T07:47:40.202Z,6.60
2019-02-18T07:50:20.312Z,6.85
2019-02-18T07:52:44.716Z,6.50
2019-02-18T07:55:16.918Z,6.60
2019-02-18T07:57:47.416Z,6.58
2019-02-18T08:00:37.079Z,6.50
2019-02-18T08:03:07.808Z,6.05
2019-02-18T08:05:38.422Z,6.40
2019-02-18T08:08:09.346Z,6.22
2019-02-18T08:10:40.012Z,6.55
2019-02-18T08:13:10.670Z,6.15
2019-02-18T08:15:41.462Z,6.20
2019-02-18T08:18:12.042Z,6.47
2019-02-18T08:20:42.554Z,6.12
2019-02-18T08:23:13.285Z,6.05
2019-02-18T08:25:43.868Z,6.37
2019-02-18T08:28:14.622Z,6.40
2019-02-18T08:30:45.443Z,6.33
2019-02-18T08:33:16.027Z,6.10
2019-02-18T08:35:47.039Z,6.20
2019-02-18T08:38:17.463Z,6.17
2019-02-18T08:40:48.337Z,6.25
2019-02-18T08:43:19.049Z,5.72
2019-02-18T08:45:49.687Z,6.08
2019-02-18T08:48:20.502Z,6.12
2019-02-18T08:50:51.336Z,5.65
2019-02-18T08:53:21.902Z,6.40
2019-02-18T08:55:52.459Z,5.80
2019-02-18T08:58:23.278Z,6.28
2019-02-18T09:01:02.302Z,5.53
2019-02-18T09:03:26.424Z,5.42
2019-02-18T09:05:57.194Z,6.00
2019-02-18T09:08:27.823Z,5.75
2019-02-18T09:10:58.686Z,5.97
2019-02-18T09:13:29.502Z,5.65
2019-02-18T09:16:00.631Z,5.47
2019-02-18T09:18:31.529Z,5.60
2019-02-18T09:21:02.063Z,5.62
2019-02-18T09:23:51.644Z,5.33
2019-02-18T09:26:22.303Z,5.55
2019-02-18T09:28:53.078Z,5.90
2019-02-18T09:31:28.517Z,5.70
2019-02-18T09:33:59.144Z,5.60
2019-02-18T09:36:29.859Z,5.62
2019-02-18T09:39:00.413Z,5.65
2019-02-18T09:41:31.134Z,5.87
2019-02-18T09:44:01.534Z,6.05
2019-02-18T09:46:32.249Z,6.17
2019-02-18T09:49:04.071Z,5.83
2019-02-18T09:51:34.776Z,5.70
2019-02-18T09:54:05.432Z,5.40
2019-02-18T09:56:36.965Z,5.20
2019-02-18T09:59:07.587Z,6.00
2019-02-18T10:01:38.124Z,6.12
2019-02-18T10:04:08.616Z,5.60
2019-02-18T10:06:39.188Z,5.60
2019-02-18T10:09:10.048Z,5.78
2019-02-18T10:11:40.539Z,5.55
2019-02-18T10:14:11.082Z,5.70
2019-02-18T10:16:41.748Z,5.30
2019-02-18T10:19:15.825Z,5.25
2019-02-18T10:21:46.772Z,5.10
2019-02-18T10:24:17.283Z,5.72
2019-02-18T10:26:47.743Z,5.25
2019-02-18T10:29:18.364Z,5.30
2019-02-18T10:31:49.154Z,5.42
2019-02-18T10:34:20.147Z,4.85
2019-02-18T10:36:50.782Z,5.30
2019-02-18T10:39:21.607Z,4.60
2019-02-18T10:41:52.011Z,5.03
2019-02-18T10:44:22.669Z,5.15
2019-02-18T10:46:53.298Z,4.90
2019-02-18T10:49:24.137Z,5.20
2019-02-18T10:51:55.081Z,4.75
2019-02-18T10:54:25.558Z,4.80
2019-02-18T10:56:56.097Z,4.83
2019-02-18T10:59:26.686Z,4.55
2019-02-18T11:01:57.420Z,5.15
2019-02-18T11:04:27.958Z,5.20
2019-02-18T11:06:58.651Z,4.50
2019-02-18T11:09:29.465Z,4.10
2019-02-18T11:12:00.223Z,4.58
2019-02-18T11:14:31.023Z,4.15
2019-02-18T11:17:01.470Z,4.28
2019-02-18T11:19:32.118Z,4.00
2019-02-18T11:22:02.857Z,4.50
2019-02-18T11:24:33.290Z,4.30
2019-02-18T11:27:04.074Z,4.05
2019-02-18T11:29:34.546Z,4.20
2019-02-18T11:32:05.303Z,4.25
2019-02-18T11:34:36.046Z,3.98
2019-02-18T11:37:06.669Z,3.70
2019-02-18T11:39:37.271Z,4.10
2019-02-18T11:42:07.922Z,4.10
2019-02-18T11:44:38.439Z,4.30
2019-02-18T11:47:09.110Z,4.00
2019-02-18T11:49:39.679Z,4.22
2019-02-18T11:52:10.442Z,4.33
2019-02-18T11:54:41.016Z,3.45
2019-02-18T11:57:11.618Z,3.90
2019-02-18T11:59:42.496Z,4.20
2019-02-18T12:02:13.287Z,4.10
2019-02-18T12:04:43.994Z,3.85
2019-02-18T12:07:14.506Z,3.90
2019-02-18T12:09:45.306Z,3.58
2019-02-18T12:12:15.915Z,3.87
2019-02-18T12:14:46.701Z,3.77
2019-02-18T12:17:20.447Z,3.37
2019-02-18T12:19:50.067Z,3.80
2019-02-18T12:22:20.550Z,3.83
2019-02-18T12:24:50.976Z,4.15
2019-02-18T12:27:21.536Z,3.72
2019-02-18T12:29:53.419Z,4.00
2019-02-18T12:32:24.162Z,4.12
2019-02-18T12:34:54.737Z,3.75
2019-02-18T12:37:25.267Z,4.00
2019-02-18T12:39:55.867Z,3.75
2019-02-18T12:42:26.518Z,3.90
2019-02-18T12:44:57.353Z,3.72
2019-02-18T12:47:28.045Z,4.20
2019-02-18T12:49:58.511Z,3.92
2019-02-18T12:52:29.215Z,4.05
2019-02-18T12:55:00.493Z,4.10
2019-02-18T12:57:31.313Z,4.58
2019-02-18T13:00:02.121Z,3.98
2019-02-18T13:02:43.392Z,3.95
2019-02-18T13:05:06.242Z,4.28
2019-02-18T13:07:37.029Z,3.85
2019-02-18T13:10:08.086Z,4.40
2019-02-18T13:12:38.765Z,4.50
2019-02-18T13:15:11.572Z,4.05
2019-02-18T13:17:42.916Z,4.30
2019-02-18T13:20:13.753Z,4.37
2019-02-18T13:22:44.469Z,4.37
2019-02-18T13:25:15.106Z,3.92
2019-02-18T13:27:46.017Z,4.35
2019-02-18T13:30:17.448Z,4.37
2019-02-18T13:32:48.263Z,4.40
2019-02-18T13:35:18.818Z,4.28
2019-02-18T13:37:49.372Z,3.92
2019-02-18T13:40:19.860Z,4.37
2019-02-18T13:42:50.367Z,4.15
2019-02-18T13:45:20.968Z,3.95
2019-02-18T13:47:51.680Z,4.15
2019-02-18T13:50:24.038Z,4.08
2019-02-18T13:52:54.679Z,4.10
2019-02-18T13:55:25.683Z,3.72
2019-02-18T13:57:56.560Z,4.40
2019-02-18T14:00:27.213Z,3.80
2019-02-18T14:02:58.978Z,3.83
2019-02-18T14:05:29.799Z,3.77
2019-02-18T14:08:00.960Z,3.80
2019-02-18T14:10:31.645Z,4.20
2019-02-18T14:13:02.336Z,4.00
2019-02-18T14:15:32.996Z,3.83
2019-02-18T14:18:03.800Z,3.95
2019-02-18T14:20:34.570Z,4.15
2019-02-18T14:23:05.248Z,4.08
2019-02-18T14:25:36.262Z,3.90
2019-02-18T14:28:06.825Z,3.62
2019-02-18T14:30:37.471Z,3.80
2019-02-18T14:33:08.223Z,3.67
2019-02-18T14:35:38.975Z,4.30
2019-02-18T14:38:09.602Z,3.90
2019-02-18T14:40:40.086Z,3.90
2019-02-18T14:43:10.714Z,3.90
2019-02-18T14:45:42.692Z,3.55
2019-02-18T14:48:13.856Z,3.58
2019-02-18T14:50:44.521Z,3.70
2019-02-18T14:53:16.716Z,3.30
2019-02-18T14:55:47.490Z,3.58
2019-02-18T14:58:18.412Z,3.42
2019-02-18T15:00:49.556Z,3.30
2019-02-18T15:03:20.320Z,3.30
2019-02-18T15:05:51.318Z,3.45
2019-02-18T15:08:22.441Z,3.42
2019-02-18T15:10:53.518Z,3.10
2019-02-18T15:13:24.267Z,3.37
2019-02-18T15:15:55.058Z,3.33
2019-02-18T15:18:25.810Z,3.35
2019-02-18T15:20:56.665Z,3.15
2019-02-18T15:23:27.179Z,3.72
2019-02-18T15:25:57.809Z,3.67
2019-02-18T15:28:28.667Z,3.65
2019-02-18T15:31:00.048Z,3.83
2019-02-18T15:33:31.002Z,4.10
2019-02-18T15:36:01.787Z,3.75
2019-02-18T15:38:32.905Z,3.50
2019-02-18T15:41:04.570Z,3.80
2019-02-18T15:43:35.437Z,4.15
2019-02-18T15:46:06.618Z,4.42
2019-02-18T15:48:37.508Z,4.35
2019-02-18T15:51:08.245Z,4.25
2019-02-18T15:53:39.492Z,4.33
2019-02-18T15:56:10.366Z,4.05
2019-02-18T15:58:41.313Z,4.22
2019-02-18T16:01:12.315Z,4.30
2019-02-18T16:03:42.949Z,4.40
2019-02-18T16:06:14.077Z,4.58
2019-02-18T16:08:44.959Z,4.30
2019-02-18T16:15:03.380Z,4.47
2019-02-18T16:17:39.749Z,4.12
2019-02-18T16:20:28.458Z,3.83
2019-02-18T16:22:59.173Z,4.37
2019-02-18T16:25:29.967Z,4.17
2019-02-18T16:28:00.857Z,4.55
2019-02-18T16:30:31.671Z,4.65
2019-02-18T16:33:05.054Z,4.78
2019-02-18T16:35:36.922Z,4.85
2019-02-18T16:38:07.901Z,4.50
2019-02-18T16:40:45.195Z,4.40
2019-02-18T16:43:16.381Z,4.90
2019-02-18T16:45:47.631Z,5.35
2019-02-18T16:48:18.666Z,5.40
2019-02-18T16:50:49.833Z,6.78
2019-02-18T16:53:20.796Z,8.13
2019-02-18T16:55:51.446Z,7.97
2019-02-18T16:58:22.475Z,775.00
2019-02-18T17:00:57.764Z,625.92
2019-02-18T17:03:25.600Z,550.00
2019-02-18T17:05:56.801Z,486.65
2019-02-18T17:08:27.459Z,385.05
2019-02-18T17:10:58.120Z,368.02
2019-02-18T17:13:28.767Z,312.17
2019-02-18T17:15:59.551Z,245.27
2019-02-18T17:18:30.207Z,184.85
2019-02-18T17:21:00.875Z,167.35
2019-02-18T17:23:31.629Z,143.50
2019-02-18T17:26:02.791Z,133.18
2019-02-18T17:28:33.655Z,115.60
2019-02-18T17:31:04.598Z,121.02
2019-02-18T17:33:35.385Z,111.17
2019-02-18T17:36:06.125Z,106.00
2019-02-18T17:38:37.013Z,102.32
2019-02-18T17:41:07.609Z,99.77
2019-02-18T17:43:38.219Z,94.92
2019-02-18T17:46:09.232Z,91.10
2019-02-18T17:48:40.011Z,89.97
2019-02-18T17:51:10.962Z,85.80
2019-02-18T17:53:41.632Z,82.82
2019-02-18T17:56:12.212Z,78.75
2019-02-18T17:58:42.940Z,78.05
2019-02-18T18:01:13.548Z,73.85
2019-02-18T18:03:44.622Z,71.47
2019-02-18T18:06:16.338Z,70.87
2019-02-18T18:08:48.287Z,67.12
2019-02-18T18:11:20.454Z,64.15
2019-02-18T18:13:51.953Z,63.65
2019-02-18T18:16:23.107Z,58.20
2019-02-18T18:18:54.943Z,56.92
2019-02-18T18:21:26.526Z,56.90
2019-02-18T18:23:58.670Z,53.15
2019-02-18T18:26:30.641Z,51.30
2019-02-18T18:29:02.058Z,53.83
2019-02-18T18:31:33.868Z,49.88
2019-02-18T18:34:05.767Z,48.02
2019-02-18T18:36:37.123Z,45.83
2019-02-18T18:39:09.019Z,46.50
2019-02-18T18:41:40.609Z,47.05
2019-02-18T18:44:12.078Z,45.30
2019-02-18T18:46:43.037Z,43.00
2019-02-18T18:49:14.330Z,40.05
2019-02-18T18:51:45.289Z,35.98
2019-02-18T18:54:16.400Z,37.28
2019-02-18T18:56:47.461Z,38.05
2019-02-18T18:59:18.472Z,38.30
2019-02-18T19:01:49.702Z,36.85
2019-02-18T19:04:21.345Z,35.23
2019-02-18T19:06:52.481Z,36.95
2019-02-18T19:09:23.430Z,34.43
2019-02-18T19:11:56.506Z,35.13
2019-02-18T19:14:28.843Z,34.35
2019-02-18T19:17:01.747Z,34.45
2019-02-18T19:19:33.799Z,34.05
2019-02-18T19:22:05.512Z,33.23
2019-02-18T19:24:36.958Z,33.02
2019-02-18T19:27:08.027Z,32.78
2019-02-18T19:29:38.873Z,32.42
2019-02-18T19:32:09.773Z,31.07
2019-02-18T19:34:40.728Z,32.90
2019-02-18T19:37:11.716Z,30.85
2019-02-18T19:39:42.988Z,31.37
2019-02-18T19:42:13.921Z,31.25
2019-02-18T19:44:44.864Z,30.90
2019-02-18T19:47:15.687Z,29.72
2019-02-18T19:49:46.864Z,30.90
2019-02-18T19:52:17.940Z,30.25
2019-02-18T19:54:49.870Z,28.73
2019-02-18T19:57:22.923Z,26.85
2019-02-18T19:59:55.257Z,27.40
2019-02-18T20:02:25.987Z,27.80
2019-02-18T20:04:56.905Z,28.15
2019-02-18T20:07:27.319Z,26.73
2019-02-18T20:09:57.906Z,27.70
2019-02-18T20:12:28.597Z,28.27
2019-02-18T20:14:59.269Z,27.20
2019-02-18T20:17:30.398Z,26.35
2019-02-18T20:20:01.053Z,25.55
2019-02-18T20:22:31.754Z,25.20
2019-02-18T20:25:02.541Z,25.32
2019-02-18T20:27:33.106Z,24.52
2019-02-18T20:30:04.206Z,23.80
2019-02-18T20:32:35.001Z,24.60
2019-02-18T20:35:05.934Z,24.20
2019-02-18T20:37:36.669Z,24.30
2019-02-18T20:40:07.633Z,24.72
2019-02-18T20:42:38.282Z,22.87
2019-02-18T20:45:10.308Z,24.00
2019-02-18T20:47:41.158Z,23.85
2019-02-18T20:50:12.014Z,22.65
2019-02-18T20:52:42.662Z,22.48
2019-02-18T20:55:13.576Z,21.77
2019-02-18T20:57:44.302Z,21.95
2019-02-18T21:00:17.746Z,21.73
2019-02-18T21:02:48.285Z,20.52
2019-02-18T21:05:18.837Z,21.15
2019-02-18T21:07:49.511Z,21.85
2019-02-18T21:10:20.329Z,21.62
2019-02-18T21:12:51.226Z,20.70
2019-02-18T21:15:22.161Z,21.50
2019-02-18T21:17:52.848Z,21.62
2019-02-18T21:20:23.910Z,21.65
2019-02-18T21:22:54.683Z,21.33
2019-02-18T21:25:25.266Z,20.68
2019-02-18T21:27:56.104Z,21.23
2019-02-18T21:30:26.992Z,21.52
2019-02-18T21:32:57.536Z,20.82
2019-02-18T21:35:28.715Z,21.02
2019-02-18T21:37:59.328Z,19.60
2019-02-18T21:40:30.815Z,20.32
2019-02-18T21:43:01.663Z,20.43
2019-02-18T21:45:32.583Z,20.68
2019-02-18T21:48:03.757Z,20.00
2019-02-18T21:50:34.434Z,19.27
2019-02-18T21:53:05.177Z,19.85
2019-02-18T21:55:35.794Z,19.12
2019-02-18T21:58:06.530Z,19.73
2019-02-18T22:00:37.192Z,19.52
2019-02-18T22:03:07.778Z,19.77
2019-02-18T22:05:38.556Z,19.42
2019-02-18T22:08:09.271Z,18.37
2019-02-18T22:10:40.134Z,18.02
2019-02-18T22:13:10.905Z,18.02
2019-02-18T22:15:41.966Z,18.87
2019-02-18T22:18:12.700Z,18.10
2019-02-18T22:20:43.660Z,17.20
2019-02-18T22:23:19.149Z,17.32
2019-02-18T22:25:51.426Z,16.82
2019-02-18T22:28:22.521Z,16.45
2019-02-18T22:30:53.263Z,15.68
2019-02-18T22:33:24.154Z,16.65
2019-02-18T22:35:54.635Z,15.28
2019-02-18T22:38:25.248Z,15.88
2019-02-18T22:40:55.831Z,15.45
2019-02-18T22:43:26.380Z,15.88
2019-02-18T22:45:57.210Z,14.58
2019-02-18T22:48:27.970Z,14.83
2019-02-18T22:50:58.642Z,15.43
2019-02-18T22:53:31.081Z,14.83
2019-02-18T22:56:02.113Z,15.00
2019-02-18T22:58:32.936Z,15.05
2019-02-18T23:01:03.971Z,13.68
2019-02-18T23:03:34.732Z,15.10
2019-02-18T23:06:05.396Z,14.65
2019-02-18T23:08:36.129Z,12.88
2019-02-18T23:11:06.846Z,12.98
2019-02-18T23:13:37.548Z,14.30
2019-02-18T23:16:08.307Z,13.20
2019-02-18T23:18:38.777Z,13.60
2019-02-18T23:21:09.482Z,13.00
2019-02-18T23:23:40.423Z,12.37
2019-02-18T23:26:11.147Z,12.90
2019-02-18T23:28:41.661Z,12.43
2019-02-18T23:31:12.282Z,12.03
2019-02-18T23:33:42.925Z,11.40
2019-02-18T23:36:13.899Z,10.90
2019-02-18T23:38:44.777Z,11.08
2019-02-18T23:41:15.463Z,10.55
2019-02-18T23:43:46.469Z,10.80
2019-02-18T23:46:17.237Z,10.40
2019-02-18T23:48:47.828Z,10.72
2019-02-18T23:51:18.430Z,11.28
2019-02-18T23:53:48.989Z,11.05
2019-02-18T23:56:19.777Z,10.82
2019-02-18T23:58:50.367Z,9.60
